Latest Weather Observations for Kowanyama

IDQ60801

Issued at 5:12 am EST Saturday 28 November 2020 (issued every 10 minutes, with the page automatically refreshed every 10 minutes)

About weather observations | Map of weather stations | Latest weather observations for QLD | Other Formats
Station Details ID: 029038 Name: KOWANYAMA AIRPORT Lat: -15.48 Lon: 141.75 Height: 9.6 m
Data from the previous 72 hours. | See also: Recent months at Kowanyama
Date/Time
EST
Temp
°C
App
Temp
°C
Dew
Point
°C
Rel
Hum
%
Delta-T
°C
Wind Press
QNH
hPa
Press
MSL
hPa
Rain since
9am
mm
Dir  Spd
km/h
Gust
km/h
Spd
kts
Gust
kts
28/05:00am 23.4 27.9 21.5 89 1.3 CALM 0 6 0 3 1009.1 1009.0 9.2
28/04:30am 23.5 28.2 21.9 91 1.1 CALM 0 0 0 0 1008.8 1008.7 9.2
28/04:00am 23.5 28.0 21.6 89 1.3 CALM 0 0 0 0 1008.6 1008.5 9.2
28/03:30am 23.5 28.0 21.6 89 1.3 CALM 0 0 0 0 1008.7 1008.6 9.2
28/03:00am 23.9 27.8 21.2 85 1.8 E 2 6 1 3 1008.8 1008.7 9.2
28/02:30am 24.5 27.8 21.4 83 2.0 E 6 7 3 4 1008.9 1008.8 9.2
28/02:00am 24.5 27.7 21.2 82 2.2 E 6 7 3 4 1009.2 1009.1 9.2
28/01:30am 24.6 27.6 21.3 82 2.2 NE 7 9 4 5 1009.4 1009.3 9.2
28/01:00am 24.5 28.2 21.4 83 2.1 ENE 4 9 2 5 1009.7 1009.6 9.2
28/12:30am 24.1 27.6 21.8 87 1.5 ENE 6 7 3 4 1009.8 1009.7 9.2
28/12:00am 24.0 27.8 22.4 91 1.1 E 6 7 3 4 1010.1 1010.0 9.2
 
Date/Time
EST
Temp
°C
App
Temp
°C
Dew
Point
°C
Rel
Hum
%
Delta-T
°C
Wind Press
QNH
hPa
Press
MSL
hPa
Rain since
9am
mm
Dir  Spd
km/h
Gust
km/h
Spd
kts
Gust
kts
27/11:30pm 24.0 28.4 22.1 89 1.3 E 2 7 1 4 1010.4 1010.3 9.2
27/11:00pm 23.9 28.7 22.2 90 1.1 CALM 0 0 0 0 1010.3 1010.2 9.2
27/10:30pm 24.0 27.9 21.9 88 1.4 ESE 4 6 2 3 1010.2 1010.1 9.2
27/10:00pm 23.9 27.2 21.8 88 1.4 SSE 7 9 4 5 1010.1 1010.0 9.2
27/09:30pm 23.8 27.2 21.7 88 1.4 ESE 6 9 3 5 1009.4 1009.3 9.2
27/09:00pm 23.7 26.7 21.2 86 1.6 N 7 11 4 6 1008.8 1008.7 9.2
27/08:30pm 23.8 26.7 21.7 88 1.4 NNW 9 13 5 7 1008.9 1008.8 9.2
27/08:00pm 23.6 27.5 21.9 90 1.1 ESE 4 7 2 4 1010.1 1010.0 9.2
27/07:30pm 23.2 25.7 21.8 92 0.9 SSE 11 15 6 8 1010.1 1010.0 9.2
27/07:00pm 23.0 25.7 21.3 90 1.1 S 9 13 5 7 1009.9 1009.8 8.8
27/06:51pm 22.8 24.2 21.1 90 1.1 S 15 24 8 13 1010.0 1009.9 8.8
27/06:30pm 23.4 23.8 20.7 85 1.8 ESE 19 28 10 15 1009.4 1009.3 5.4
27/06:26pm 23.5 23.8 20.4 83 2.0 E 19 28 10 15 1009.7 1009.6 3.4
27/06:15pm 26.7 25.3 18.8 62 5.1 E 24 41 13 22 1008.7 1008.6 0.0
27/06:00pm 31.8 33.0 20.7 51 7.4 WNW 15 24 8 13 1006.9 1006.8 0.0
27/05:30pm 32.3 33.6 20.9 51 7.6 W 15 22 8 12 1006.1 1006.0 0.0
27/05:00pm 32.3 33.1 21.8 54 7.1 WNW 20 30 11 16 1005.8 1005.7 0.0
27/04:30pm 32.4 32.6 21.3 52 7.5 W 22 32 12 17 1005.8 1005.7 0.0
27/04:00pm 33.5 35.4 21.3 48 8.3 WSW 13 24 7 13 1005.9 1005.8 0.0
27/03:30pm 34.9 35.7 17.2 35 11.4 NE 9 17 5 9 1005.9 1005.8 0.0
27/03:00pm 35.3 36.0 18.0 36 11.3 SE 11 22 6 12 1006.4 1006.3 0.0
27/02:30pm 35.0 36.4 17.7 36 11.2 E 7 13 4 7 1007.0 1006.9 0.0
27/02:00pm 34.4 35.1 18.0 37 10.6 NE 11 20 6 11 1007.4 1007.3 0.0
27/01:30pm 34.4 35.1 18.0 37 10.6 E 11 19 6 10 1008.0 1007.9 0.0
27/01:00pm 33.6 33.9 16.9 37 10.7 E 11 17 6 9 1008.5 1008.4 0.0
27/12:30pm 33.5 34.6 17.2 37 10.4 E 7 15 4 8 1008.8 1008.7 0.0
27/12:00pm 32.5 32.5 17.2 40 9.8 SSE 13 19 7 10 1009.2 1009.1 0.0
27/11:30am 31.8 32.9 18.0 43 8.9 ENE 9 17 5 9 1009.7 1009.6 0.0
27/11:00am 31.2 31.6 18.2 46 8.4 ESE 13 24 7 13 1010.0 1009.9 0.0
27/10:30am 30.9 32.0 18.9 48 7.8 E 11 17 6 9 1010.1 1010.0 0.0
27/10:00am 29.9 30.3 19.0 52 7.1 ENE 15 24 8 13 1010.3 1010.2 0.0
27/09:30am 29.4 30.6 20.0 57 6.2 NE 13 22 7 12 1010.4 1010.3 0.0
27/09:00am 28.2 29.9 21.0 65 4.8 NE 13 19 7 10 1010.5 1010.4 14.4
27/08:30am 27.2 29.4 21.2 69 4.0 NE 11 19 6 10 1010.4 1010.3 14.4
27/08:00am 25.6 26.3 20.4 73 3.4 ENE 17 24 9 13 1010.2 1010.1 14.4
27/07:30am 24.6 25.8 19.9 75 3.0 ENE 13 24 7 13 1010.0 1009.9 14.4
27/07:00am 23.4 25.2 19.5 79 2.5 ENE 9 13 5 7 1009.7 1009.6 14.4
27/06:30am 22.5 24.3 19.5 83 1.9 ENE 9 13 5 7 1009.4 1009.3 14.4
27/06:00am 21.8 23.5 19.4 86 1.5 ENE 9 13 5 7 1009.0 1008.9 14.4
27/05:30am 21.6 23.4 19.5 88 1.3 E 9 13 5 7 1008.7 1008.6 14.4
27/05:00am 21.7 23.9 19.6 88 1.3 E 7 9 4 5 1008.4 1008.3 14.4
27/04:30am 21.6 23.3 19.3 87 1.5 E 9 11 5 6 1008.1 1008.0 14.4
27/04:00am 21.5 23.2 19.4 88 1.3 E 9 13 5 7 1007.8 1007.7 14.4
27/03:30am 21.5 23.5 19.2 87 1.5 E 7 9 4 5 1007.9 1007.8 14.4
27/03:00am 21.6 23.6 19.2 86 1.5 E 7 11 4 6 1007.9 1007.8 14.4
27/02:30am 21.6 23.0 19.5 88 1.3 E 11 17 6 9 1008.1 1008.0 14.4
27/02:00am 21.7 23.4 19.4 87 1.5 E 9 15 5 8 1008.1 1008.0 14.4
27/01:30am 21.8 23.6 19.5 87 1.5 E 9 15 5 8 1008.1 1008.0 14.4
27/01:00am 21.9 23.8 19.8 88 1.3 ESE 9 11 5 6 1008.7 1008.6 14.4
27/12:30am 22.0 25.2 19.7 87 1.5 N 2 7 1 4 1009.1 1009.0 14.4
27/12:00am 21.7 24.0 19.4 87 1.5 NNE 6 7 3 4 1009.4 1009.3 14.4
 
Date/Time
EST
Temp
°C
App
Temp
°C
Dew
Point
°C
Rel
Hum
%
Delta-T
°C
Wind Press
QNH
hPa
Press
MSL
hPa
Rain since
9am
mm
Dir  Spd
km/h
Gust
km/h
Spd
kts
Gust
kts
26/11:30pm 21.7 23.3 19.1 85 1.6 NW 9 13 5 7 1009.3 1009.2 14.4
26/11:00pm 22.0 24.0 19.2 84 1.8 NW 7 11 4 6 1010.3 1010.2 14.4
26/10:30pm 21.9 23.5 19.1 84 1.8 NNE 9 11 5 6 1010.9 1010.8 14.4
26/10:00pm 21.9 23.0 18.9 83 1.9 NE 11 19 6 10 1011.1 1011.0 14.4
26/09:30pm 21.2 21.7 19.3 89 1.2 NE 15 20 8 11 1010.7 1010.6 14.4
26/09:00pm 21.1 20.9 19.4 90 1.1 NE 19 30 10 16 1010.8 1010.7 14.0
26/08:52pm 21.2 21.5 19.7 91 1.0 ENE 17 26 9 14 1010.9 1010.8 13.0
26/08:49pm 21.2 21.6 19.8 92 0.9 ENE 17 24 9 13 1011.1 1011.0 13.0
26/08:30pm 20.9 20.4 19.9 94 0.6 ENE 22 37 12 20 1011.1 1011.0 10.6
26/08:20pm 21.0 19.7 19.8 93 0.8 ENE 26 44 14 24 1010.8 1010.7 5.2
26/08:12pm 21.4 19.1 19.3 88 1.3 ENE 30 50 16 27 1010.7 1010.6 1.2
26/08:00pm 23.7 20.1 18.6 73 3.2 E 35 54 19 29 1009.6 1009.5 0.0
26/07:45pm 27.1 27.2 18.4 59 5.5 NE 15 54 8 29 1008.8 1008.7 0.0
26/07:44pm 28.6 30.8 21.1 64 5.0 NNE 11 54 6 29 1008.7 1008.6 0.0
26/07:30pm 29.7 34.2 24.6 74 3.6 NW 9 13 5 7 1006.6 1006.5 0.0
26/07:00pm 29.9 33.2 24.5 73 3.8 W 15 17 8 9 1005.7 1005.6 0.0
26/06:30pm 30.3 32.7 23.7 68 4.6 W 17 20 9 11 1005.9 1005.8 0.0
26/06:00pm 30.9 32.8 23.8 66 4.9 W 20 26 11 14 1005.1 1005.0 0.0
26/05:30pm 31.3 32.7 24.2 66 5.0 W 24 33 13 18 1003.2 1003.1 0.0
26/05:00pm 32.1 33.7 23.9 62 5.7 W 22 30 12 16 1004.3 1004.2 0.0
26/04:30pm 32.6 33.5 22.7 56 6.8 W 22 30 12 16 1004.7 1004.6 0.0
26/04:00pm 33.7 33.4 22.5 52 7.7 WNW 28 37 15 20 1004.1 1004.0 0.0
26/03:30pm 34.9 34.9 21.6 46 9.1 WNW 24 35 13 19 1003.8 1003.7 0.0
26/03:00pm 35.1 35.3 22.1 47 8.9 WNW 24 33 13 18 1004.7 1004.6 0.0
26/02:30pm 35.8 36.0 22.0 44 9.5 WNW 24 35 13 19 1005.2 1005.1 0.0
26/02:00pm 35.1 36.1 21.0 43 9.6 NW 17 26 9 14 1005.7 1005.6 0.0
26/01:30pm 35.7 36.6 21.9 44 9.4 WNW 20 33 11 18 1006.0 1005.9 0.0
26/01:00pm 35.1 34.8 19.5 40 10.4 WNW 20 30 11 16 1006.3 1006.2 0.0
26/12:30pm 35.2 35.5 19.6 40 10.4 WNW 17 30 9 16 1006.8 1006.7 0.0
26/12:00pm 35.4 36.5 18.0 35 11.3 SW 9 17 5 9 1007.2 1007.1 0.0
26/11:30am 34.1 35.8 19.4 42 9.7 NW 9 17 5 9 1007.7 1007.6 0.0
26/11:00am 34.2 36.5 20.6 45 9.1 NNW 9 15 5 8 1007.9 1007.8 0.0
26/10:30am 32.4 34.2 19.6 46 8.4 N 9 15 5 8 1008.2 1008.1 0.0
26/10:00am 32.0 33.8 19.6 47 8.2 NE 9 13 5 7 1008.4 1008.3 0.0
26/09:30am 31.1 32.7 19.1 48 7.8 N 9 13 5 7 1008.8 1008.7 0.0
26/09:00am 30.1 31.2 18.8 50 7.3 NE 11 17 6 9 1009.1 1009.0 15.6
26/08:30am 28.9 30.6 20.1 59 5.8 ENE 11 17 6 9 1008.9 1008.8 15.6
26/08:00am 27.7 29.7 20.8 66 4.6 ENE 11 15 6 8 1008.8 1008.7 15.6
26/07:30am 26.3 28.6 20.6 71 3.7 NE 9 15 5 8 1008.4 1008.3 15.6
26/07:00am 25.6 28.1 21.1 76 3.0 ENE 9 13 5 7 1008.4 1008.3 15.6
26/06:30am 24.9 28.3 21.6 82 2.2 ENE 6 9 3 5 1008.0 1007.9 15.6
26/06:00am 24.0 27.0 20.9 83 2.0 NNE 6 9 3 5 1007.3 1007.2 15.6
26/05:30am 24.2 27.0 20.9 82 2.2 ESE 7 11 4 6 1007.3 1007.2 15.6
26/05:00am 24.2 26.9 20.7 81 2.3 E 7 9 4 5 1006.4 1006.3 15.6
26/04:30am 24.5 27.4 20.6 79 2.5 NE 6 7 3 4 1005.5 1005.4 15.6
26/04:00am 24.8 27.5 20.7 78 2.7 NNE 7 11 4 6 1005.5 1005.4 15.6
26/03:30am 25.3 27.8 20.3 74 3.3 NNE 7 11 4 6 1005.3 1005.2 15.6
26/03:00am 25.6 27.9 20.6 74 3.3 N 9 13 5 7 1005.1 1005.0 15.6
26/02:30am 26.1 29.1 20.9 73 3.4 N 6 11 3 6 1005.2 1005.1 15.6
26/02:00am 26.0 28.9 21.7 77 2.9 NNW 9 13 5 7 1004.9 1004.8 15.6
26/01:30am 26.2 30.0 22.7 81 2.4 N 7 11 4 6 1006.0 1005.9 15.6
26/01:00am 26.2 29.9 23.3 84 2.0 NNE 9 11 5 6 1005.9 1005.8 15.6
26/12:30am 26.8 31.5 23.9 84 2.0 W 6 7 3 4 1006.2 1006.1 15.6
26/12:00am 26.9 31.1 23.4 81 2.4 N 7 11 4 6 1006.5 1006.4 15.6
 
Date/Time
EST
Temp
°C
App
Temp
°C
Dew
Point
°C
Rel
Hum
%
Delta-T
°C
Wind Press
QNH
hPa
Press
MSL
hPa
Rain since
9am
mm
Dir  Spd
km/h
Gust
km/h
Spd
kts
Gust
kts
25/11:30pm 26.5 30.1 23.0 81 2.4 N 9 13 5 7 1006.9 1006.8 15.6
25/11:00pm 26.8 31.1 23.3 81 2.4 NW 6 7 3 4 1007.8 1007.7 15.6
25/10:30pm 26.7 31.1 22.8 79 2.6 WSW 4 6 2 3 1008.8 1008.7 15.6
25/10:00pm 26.9 30.7 22.7 78 2.8 SSW 7 7 4 4 1008.8 1008.7 15.6
25/09:30pm 26.8 32.0 22.8 79 2.7 CALM 0 0 0 0 1008.3 1008.2 15.6
25/09:00pm 27.4 32.5 22.6 75 3.3 CALM 0 0 0 0 1007.9 1007.8 15.6
25/08:30pm 27.6 32.1 21.6 70 4.0 CALM 0 0 0 0 1007.6 1007.5 15.6
25/08:00pm 28.4 32.5 20.7 63 5.1 CALM 0 0 0 0 1006.8 1006.7 15.6
25/07:30pm 29.5 32.1 20.4 58 6.0 NW 7 11 4 6 1005.9 1005.8 15.6
25/07:00pm 30.3 32.1 19.6 52 7.0 W 9 13 5 7 1005.5 1005.4 15.6
25/06:30pm 31.6 33.1 18.9 47 8.3 WNW 9 13 5 7 1004.8 1004.7 15.6
25/06:00pm 32.5 34.3 18.3 43 9.2 NNW 6 9 3 5 1003.8 1003.7 15.6
25/05:30pm 33.2 35.5 17.8 40 9.9 W 2 7 1 4 1004.1 1004.0 15.6
25/05:00pm 32.5 33.5 16.8 39 10.0 NNW 7 13 4 7 1003.6 1003.5 15.6
25/04:30pm 31.8 33.1 18.4 45 8.7 NNW 9 15 5 8 1003.6 1003.5 15.6
25/04:00pm 32.0 34.2 19.3 47 8.3 WSW 6 9 3 5 1004.0 1003.9 15.6
25/03:30pm 30.6 33.1 19.0 50 7.5 NNE 4 9 2 5 1004.1 1004.0 15.6
25/03:00pm 29.3 30.7 18.7 52 6.9 NNW 9 15 5 8 1005.0 1004.9 15.6
25/02:30pm 28.7 29.5 19.1 56 6.2 NNE 13 20 7 11 1005.1 1005.0 15.6
25/02:00pm 26.9 28.1 19.8 65 4.6 ESE 13 19 7 10 1006.6 1006.5 15.6
25/01:30pm 26.0 26.3 20.3 71 3.7 SE 19 24 10 13 1008.3 1008.2 15.6
25/01:00pm 27.2 25.1 21.0 69 4.1 SE 33 48 18 26 1008.4 1008.3 15.6
25/12:34pm 26.8 24.9 22.0 75 3.2 SE 35 54 19 29 1009.1 1009.0 15.6
25/12:30pm 27.0 24.3 22.0 74 3.4 SE 39 54 21 29 1009.0 1008.9 15.6
25/12:25pm 27.1 24.5 20.7 68 4.2 SE 35 54 19 29 1008.7 1008.6 15.6
25/12:00pm 28.4 30.2 23.5 75 3.4 SE 20 37 11 20 1008.4 1008.3 15.6
25/11:30am 25.3 27.7 20.8 76 3.0 ENE 9 15 5 8 1008.0 1007.9 15.6
25/11:00am 23.7 24.5 20.6 83 2.0 NW 17 24 9 13 1008.9 1008.8 15.4
25/10:30am 24.3 24.4 22.6 90 1.1 W 26 35 14 19 1008.9 1008.8 13.2
25/10:18am 24.5 23.1 22.0 86 1.7 SW 32 48 17 26 1008.4 1008.3 4.0
25/10:10am 28.5 29.6 22.0 68 4.4 S 19 43 10 23 1008.2 1008.1 0.0
25/10:00am 31.2 34.4 23.0 61 5.6 S 11 15 6 8 1008.1 1008.0 0.0
25/09:30am 31.6 35.1 22.9 60 6.0 S 9 15 5 8 1008.1 1008.0 0.0
25/09:00am 31.9 36.3 23.4 60 5.9 WSW 6 11 3 6 1007.7 1007.6 0.0
25/08:30am 30.6 34.4 24.0 68 4.6 NNW 11 17 6 9 1007.4 1007.3 0.0
25/08:00am 29.9 34.1 24.1 71 4.0 N 9 13 5 7 1006.7 1006.6 0.0
25/07:30am 28.8 32.1 23.9 75 3.4 N 13 17 7 9 1006.2 1006.1 0.0
25/07:00am 28.0 32.0 23.8 78 2.9 NNE 9 15 5 8 1006.0 1005.9 0.0
25/06:30am 26.9 31.3 23.8 83 2.1 N 7 11 4 6 1005.7 1005.6 0.0
25/06:00am 26.6 31.1 23.7 84 2.0 NNE 6 7 3 4 1005.7 1005.6 0.0
25/05:30am 26.7 31.2 24.0 85 1.9 NNE 7 9 4 5 1005.4 1005.3 0.0

Other formats

Comma delimited format used in spreadsheet applications
http://www.bom.gov.au/fwo/IDQ60801/IDQ60801.94268.axf

JavaScript Object Notation format (JSON) in row-major order
http://www.bom.gov.au/fwo/IDQ60801/IDQ60801.94268.json

Data quality

Most of these data are generated automatically and are frequently updated. Quality checks on data are not normally performed. It is possible for incorrect values to appear. Refer to information at About Latest Weather Observations and please check the disclaimer before using these data.